Latest Weather Observations for Albany Airport

IDW60801

Issued at 9:05 am WST Thursday 31 July 2014 (issued every 30 minutes, with the page automatically refreshed every 10 minutes)

About weather observations | Map of weather stations | Latest weather observations for WA | Other Formats
Station Details ID: 009999 Name: ALBANY AIRPORT Lat: -34.94 Lon: 117.82 Height: 68.4 m
Data from the previous 72 hours. | See also: Recent months at Albany Airport
Date/Time
WST
Temp
°C
App
Temp
°C
Dew
Point
Rel
Hum
%
Delta-T
°C
Wind Press
QNH
hPa
Press
MSL
hPa
Rain
since 9 am
mm
Dir
 
Spd
km/h
Gust
km/h
Spd
kts
Gust
kts
31/09:00am 10.3 5.6 0.8 51 3.9 SSW 15 20 8 11 1025.9 - 1.0
31/08:30am 9.8 4.6 0.4 52 3.8 SW 17 26 9 14 1025.7 - 1.0
31/08:00am 9.4 3.6 -0.2 51 3.8 SSW 20 33 11 18 1025.5 - 1.0
31/07:30am 9.6 4.0 1.0 55 3.5 S 20 32 11 17 1025.0 - 1.0
31/07:00am 9.3 3.5 -0.3 51 3.8 SSW 20 28 11 15 1024.6 - 1.0
31/06:30am 9.6 3.7 1.4 56 3.4 SSW 22 33 12 18 1024.0 - 1.0
31/06:00am 9.1 3.3 0.1 53 3.6 SSW 20 28 11 15 1023.7 1023.9 1.0
31/05:30am 9.7 3.2 0.6 53 3.7 SSW 24 39 13 21 1023.1 - 1.0
31/05:00am 9.7 3.0 1.5 56 3.4 SSW 26 39 14 21 1022.8 - 1.0
31/04:30am 10.1 3.4 3.4 63 2.9 SSW 28 46 15 25 1022.3 - 1.0
31/04:29am 10.0 3.3 3.9 66 2.7 SSW 28 46 15 25 1022.3 - 1.0
31/04:00am 9.8 3.8 5.4 74 2.0 SW 26 37 14 20 1022.1 - 1.0
31/03:35am 9.3 4.4 7.0 85 1.1 SW 22 32 12 17 1021.9 - 1.0
31/03:30am 9.2 4.3 6.8 85 1.1 SW 22 28 12 15 1021.9 - 1.0
31/03:17am 9.5 2.6 6.3 80 1.5 SW 32 41 17 22 1021.9 - 1.0
31/03:00am 10.6 3.8 5.1 69 2.5 SW 30 44 16 24 1021.5 1021.7 0.8
31/02:48am 10.5 3.8 5.5 71 2.3 SW 30 50 16 27 1021.3 - 0.8
31/02:30am 11.1 3.8 4.7 64 2.9 SW 32 46 17 25 1021.1 - 0.8
31/02:24am 11.3 4.6 3.9 60 3.3 SW 28 46 15 25 1021.2 - 0.8
31/02:00am 11.0 5.0 5.3 68 2.6 WSW 26 37 14 20 1020.9 - 0.8
31/01:30am 11.1 3.6 3.6 60 3.3 WSW 32 48 17 26 1020.6 - 0.8
31/01:16am 11.5 4.1 3.9 59 3.4 WSW 32 50 17 27 1020.6 - 0.8
31/01:00am 11.4 5.0 3.2 57 3.6 WSW 26 39 14 21 1020.3 - 0.8
31/12:30am 11.4 3.9 1.1 49 4.3 WSW 30 43 16 23 1020.2 - 0.8
31/12:01am 11.8 3.3 1.1 48 4.5 SW 35 57 19 31 1020.0 - 0.8
31/12:00am 11.8 3.4 1.4 49 4.4 SW 35 52 19 28 1019.9 1020.1 0.8
 
Date/Time
WST
Temp
°C
App
Temp
°C
Dew
Point
Rel
Hum
%
Delta-T
°C
Wind Press
QNH
hPa
Press
MSL
hPa
Rain
since 9 am
mm
Dir
 
Spd
km/h
Gust
km/h
Spd
kts
Gust
kts
30/11:30pm 12.2 4.1 3.1 53 4.0 WSW 35 56 19 30 1019.7 - 0.8
30/11:03pm 12.0 4.8 3.1 54 3.9 WSW 30 48 16 26 1019.4 - 0.8
30/11:00pm 12.1 4.5 2.7 52 4.1 WSW 32 48 17 26 1019.3 - 0.8
30/10:30pm 12.1 4.0 3.0 53 4.0 WSW 35 54 19 29 1019.1 - 0.8
30/10:14pm 12.1 4.1 3.8 57 3.7 WSW 35 54 19 29 1019.0 - 0.8
30/10:00pm 12.2 4.9 4.5 59 3.5 WSW 32 48 17 26 1018.9 - 0.8
30/09:40pm 12.5 4.6 4.4 58 3.7 WSW 35 57 19 31 1018.6 - 0.8
30/09:30pm 12.5 4.9 5.7 63 3.2 WSW 35 50 19 27 1018.5 - 0.8
30/09:10pm 12.3 5.6 8.0 75 2.1 WSW 33 52 18 28 1018.2 - 0.8
30/09:00pm 12.4 5.4 8.6 77 1.9 WSW 35 52 19 28 1018.0 1018.2 0.8
30/08:30pm 12.7 7.1 10.2 85 1.3 WSW 30 50 16 27 1017.6 - 0.8
30/08:13pm 12.4 8.1 10.9 90 0.8 W 24 35 13 19 1017.4 - 0.8
30/08:00pm 12.3 8.4 10.8 90 0.8 W 22 32 12 17 1017.3 - 0.6
30/07:45pm 12.6 7.5 10.5 87 1.1 W 28 41 15 22 1017.1 - 0.2
30/07:30pm 13.1 7.7 9.6 79 1.8 W 28 39 15 21 1017.0 - 0.2
30/07:00pm 13.0 8.2 9.0 77 2.0 W 24 33 13 18 1016.7 - 0.2
30/06:30pm 13.6 8.0 8.8 73 2.4 WNW 28 44 15 24 1016.5 - 0.2
30/06:00pm 13.9 8.6 8.5 70 2.7 W 26 41 14 22 1016.6 1016.8 0.2
30/05:30pm 14.2 8.9 8.4 68 2.9 W 26 39 14 21 1016.5 - 0.2
30/05:00pm 14.4 8.1 9.1 70 2.7 W 32 41 17 22 1016.4 - 0.2
30/04:30pm 14.7 8.8 10.3 75 2.3 W 32 43 17 23 1016.1 - 0.2
30/04:11pm 15.0 9.2 10.7 75 2.3 W 32 50 17 27 1015.9 - 0.2
30/04:00pm 14.9 9.8 10.7 76 2.2 W 28 41 15 22 1015.8 - 0.2
30/03:54pm 15.0 9.7 11.1 77 2.1 W 30 48 16 26 1015.8 - 0.2
30/03:30pm 15.0 9.1 11.1 77 2.1 W 33 50 18 27 1015.7 - 0.2
30/03:15pm 14.7 8.4 11.1 79 1.9 W 35 54 19 29 1015.5 - 0.2
30/03:04pm 14.5 8.8 11.9 84 1.4 W 33 50 18 27 1015.6 - 0.2
30/03:02pm 14.4 8.9 11.8 84 1.4 W 32 50 17 27 1015.6 - 0.2
30/03:00pm 14.2 8.5 11.8 85 1.3 W 33 50 18 27 1015.6 1015.8 0.2
30/02:56pm 14.1 8.8 12.4 89 0.9 W 32 44 17 24 1015.6 - 0.2
30/02:32pm 14.2 9.0 12.9 92 0.7 W 32 43 17 23 1015.3 - 0.0
30/02:30pm 14.3 9.1 12.8 91 0.8 W 32 43 17 23 1015.3 - 0.0
30/02:19pm 15.0 9.7 13.0 88 1.1 W 33 43 18 23 1015.2 - 0.0
30/02:00pm 17.8 11.6 10.1 60 4.1 W 33 44 18 24 1014.7 - 0.0
30/01:30pm 16.5 12.6 12.1 75 2.4 WSW 24 30 13 16 1014.8 - 0.0
30/01:00pm 16.0 11.9 11.6 75 2.4 W 24 35 13 19 1015.1 - 0.0
30/12:30pm 15.6 9.4 11.5 76 2.2 W 35 48 19 26 1015.4 - 0.0
30/12:19pm 16.2 10.2 10.8 70 2.9 W 33 43 18 23 1015.4 - 0.0
30/12:09pm 16.1 9.2 10.2 68 3.1 WNW 37 56 20 30 1015.4 - 0.0
30/12:00pm 16.6 10.7 10.6 67 3.2 W 32 44 17 24 1015.7 1015.9 0.0
30/11:39am 15.7 11.0 12.0 78 2.0 WNW 28 43 15 23 1016.2 - 0.0
30/11:30am 14.8 9.0 12.6 87 1.2 WNW 35 61 19 33 1016.4 - 0.0
30/11:24am 13.8 6.4 11.2 84 1.4 WNW 41 61 22 33 1016.5 - 0.0
30/11:22am 13.9 6.8 10.9 82 1.6 W 39 61 21 33 1016.5 - 0.0
30/11:21am 14.1 7.1 11.3 83 1.5 W 39 56 21 30 1016.6 - 0.0
30/11:12am 14.5 9.5 11.1 80 1.8 W 28 50 15 27 1016.6 - 0.0
30/11:09am 14.5 9.7 11.7 83 1.5 W 28 37 15 20 1016.7 - 0.0
30/11:00am 14.7 9.0 11.1 79 1.9 W 32 43 17 23 1016.8 - 0.0
30/10:30am 15.2 8.3 10.2 72 2.6 WNW 37 50 20 27 1016.8 - 0.0
30/10:00am 15.5 9.8 9.7 68 3.0 WNW 30 50 16 27 1016.7 - 0.0
30/09:38am 14.9 9.2 9.7 71 2.7 WNW 30 48 16 26 1016.7 - 0.0
30/09:30am 15.1 10.1 9.5 69 2.9 WNW 26 39 14 21 1016.6 - 0.0
30/09:00am 14.9 10.4 9.9 72 2.6 WNW 24 33 13 18 1016.6 1016.8 0.0
30/08:30am 14.1 8.8 9.8 75 2.2 WNW 28 37 15 20 1016.6 - 0.0
30/08:00am 14.1 8.6 9.2 72 2.5 WNW 28 33 15 18 1016.5 - 0.0
30/07:30am 13.7 8.5 9.0 73 2.4 WNW 26 33 14 18 1016.2 - 0.0
30/07:00am 13.3 9.3 8.9 74 2.2 WNW 20 28 11 15 1016.3 - 0.0
30/06:30am 12.5 8.5 9.1 80 1.7 WNW 20 26 11 14 1016.2 - 0.0
30/06:00am 13.0 9.0 9.0 77 2.0 WNW 20 28 11 15 1016.1 1016.3 0.0
30/05:30am 13.4 9.1 9.3 76 2.1 WNW 22 33 12 18 1016.1 - 0.0
30/05:00am 13.7 8.3 9.6 76 2.1 WNW 28 39 15 21 1016.2 - 0.0
30/04:30am 13.7 8.4 10.0 78 1.9 WNW 28 37 15 20 1016.4 - 0.0
30/04:00am 13.8 8.1 9.9 77 2.0 WNW 30 39 16 21 1016.5 - 0.0
30/03:30am 13.5 9.0 10.0 79 1.8 WNW 24 33 13 18 1016.7 - 0.0
30/03:00am 13.4 8.9 9.9 79 1.8 WNW 24 33 13 18 1016.7 1016.9 0.0
30/02:30am 13.5 8.1 9.4 76 2.1 NW 28 35 15 19 1016.7 - 0.0
30/02:00am 13.5 8.1 9.6 77 2.0 WNW 28 35 15 19 1017.3 - 0.0
30/01:30am 13.6 8.9 9.3 75 2.2 WNW 24 35 13 19 1017.4 - 0.0
30/01:00am 13.8 9.1 9.3 74 2.3 WNW 24 32 13 17 1017.4 - 0.0
30/12:30am 13.5 8.8 9.4 76 2.1 NW 24 32 13 17 1017.6 - 0.0
30/12:00am 14.0 9.0 9.5 74 2.3 WNW 26 33 14 18 1017.5 1017.7 0.0
 
Date/Time
WST
Temp
°C
App
Temp
°C
Dew
Point
Rel
Hum
%
Delta-T
°C
Wind Press
QNH
hPa
Press
MSL
hPa
Rain
since 9 am
mm
Dir
 
Spd
km/h
Gust
km/h
Spd
kts
Gust
kts
29/11:30pm 13.9 9.2 9.4 74 2.3 NW 24 33 13 18 1017.7 - 0.0
29/11:00pm 14.4 9.8 9.5 72 2.5 NW 24 35 13 19 1017.9 - 0.0
29/10:30pm 14.1 9.8 9.2 72 2.5 NW 22 32 12 17 1018.2 - 0.0
29/10:00pm 14.3 9.5 9.0 70 2.7 WNW 24 32 13 17 1018.2 - 0.0
29/09:30pm 14.6 9.9 9.1 69 2.8 NW 24 30 13 16 1018.3 - 0.0
29/09:00pm 15.1 10.8 9.3 68 3.0 WNW 22 32 12 17 1018.7 1018.9 0.0
29/08:30pm 15.3 10.9 9.1 66 3.2 NW 22 33 12 18 1018.9 - 0.0
29/08:00pm 15.4 11.0 9.0 65 3.3 NW 22 32 12 17 1018.8 - 0.0
29/07:30pm 15.3 11.4 9.5 68 3.0 NW 20 26 11 14 1018.9 - 0.0
29/07:00pm 15.5 11.6 9.5 67 3.1 NW 20 30 11 16 1018.7 - 0.0
29/06:30pm 15.6 12.2 9.2 65 3.3 NW 17 22 9 12 1018.5 - 0.0
29/06:00pm 15.7 11.8 9.3 65 3.3 WNW 20 28 11 15 1018.3 1018.5 0.0
29/05:30pm 15.6 11.8 9.2 65 3.3 NW 19 24 10 13 1018.0 - 0.0
29/05:00pm 16.3 12.3 9.1 62 3.7 WNW 20 28 11 15 1018.1 - 0.0
29/04:30pm 16.7 12.5 9.6 63 3.7 NW 22 32 12 17 1018.2 - 0.0
29/04:00pm 17.3 12.6 9.2 59 4.2 WNW 24 37 13 20 1018.3 - 0.0
29/03:30pm 17.3 13.3 10.3 63 3.7 NW 22 28 12 15 1018.3 - 0.0
29/03:00pm 17.5 13.2 10.6 64 3.7 WNW 24 33 13 18 1018.2 1018.4 0.0
29/02:30pm 17.8 12.7 10.7 63 3.8 WNW 28 39 15 21 1018.1 - 0.0
29/02:12pm 17.8 12.5 9.9 60 4.2 WNW 28 46 15 25 1017.9 - 0.0
29/02:00pm 18.5 13.7 10.3 59 4.4 WNW 26 37 14 20 1018.1 - 0.0
29/01:30pm 17.2 11.5 9.8 61 3.9 WNW 30 37 16 20 1018.4 - 0.0
29/01:00pm 17.8 12.4 9.6 58 4.3 WNW 28 39 15 21 1018.6 - 0.0
29/12:30pm 17.8 10.9 8.9 56 4.6 WNW 35 46 19 25 1018.8 - 0.0
29/12:20pm 17.9 11.1 9.1 56 4.6 WNW 35 54 19 29 1018.9 - 0.0
29/12:00pm 17.8 11.6 9.2 57 4.5 NW 32 44 17 24 1019.1 1019.3 0.0
29/11:44am 17.9 11.5 9.3 57 4.5 WNW 33 52 18 28 1019.3 - 0.0
29/11:30am 17.5 10.3 9.0 57 4.4 WNW 37 48 20 26 1019.5 - 0.0
29/11:00am 17.1 10.9 9.9 62 3.8 WNW 33 44 18 24 1019.8 - 0.0
29/10:30am 17.1 11.3 9.4 60 4.0 WNW 30 41 16 22 1020.0 - 0.0
29/10:00am 16.2 11.2 10.8 70 2.9 WNW 28 43 15 23 1019.9 - 0.0
29/09:30am 15.6 11.7 10.9 73 2.5 WNW 22 30 12 16 1019.7 - 0.0
29/09:00am 15.5 11.3 11.0 74 2.4 WNW 24 33 13 18 1019.5 1019.7 0.0
29/08:30am 14.0 9.7 10.6 80 1.8 NW 24 30 13 16 1019.5 - 0.0
29/08:00am 13.1 9.7 10.6 85 1.3 NW 19 24 10 13 1019.4 - 0.0
29/07:30am 12.5 8.8 10.2 86 1.2 WNW 20 28 11 15 1019.2 - 0.0
29/07:00am 12.5 9.0 10.2 86 1.2 WNW 19 22 10 12 1019.0 - 0.0
29/06:30am 12.1 8.6 10.2 88 1.0 WNW 19 24 10 13 1018.5 - 0.0
29/06:00am 12.0 8.3 10.2 89 0.9 NW 20 26 11 14 1018.2 1018.4 0.0
29/05:30am 12.6 8.1 10.1 85 1.3 NW 24 30 13 16 1018.2 - 0.0
29/05:00am 12.7 9.0 10.2 85 1.3 WNW 20 26 11 14 1018.2 - 0.0
29/04:30am 12.9 8.8 10.2 84 1.4 WNW 22 30 12 16 1017.9 - 0.0
29/04:00am 12.6 8.5 10.1 85 1.3 WNW 22 32 12 17 1017.9 - 0.0
29/03:30am 12.4 8.0 10.3 87 1.1 WNW 24 32 13 17 1017.9 - 0.0
29/03:00am 12.7 8.2 10.2 85 1.3 WNW 24 35 13 19 1017.8 1018.0 0.0
29/02:30am 12.7 7.9 10.2 85 1.3 WNW 26 35 14 19 1017.7 - 0.0
29/02:00am 12.5 7.7 10.2 86 1.2 NW 26 35 14 19 1017.9 - 0.0
29/01:30am 12.7 7.9 10.2 85 1.3 WNW 26 33 14 18 1017.9 - 0.0
29/01:00am 12.9 7.7 10.2 84 1.4 WNW 28 39 15 21 1017.9 - 0.0
29/12:30am 12.8 7.5 9.9 82 1.5 WNW 28 41 15 22 1017.7 - 0.0
29/12:00am 12.7 7.4 10.0 84 1.4 NW 28 37 15 20 1017.7 1017.9 0.0
 
Date/Time
WST
Temp
°C
App
Temp
°C
Dew
Point
Rel
Hum
%
Delta-T
°C
Wind Press
QNH
hPa
Press
MSL
hPa
Rain
since 9 am
mm
Dir
 
Spd
km/h
Gust
km/h
Spd
kts
Gust
kts
28/11:30pm 12.7 7.8 9.8 82 1.5 WNW 26 33 14 18 1018.0 - 0.0
28/11:00pm 12.8 7.8 9.7 81 1.6 WNW 26 35 14 19 1018.2 - 0.0
28/10:30pm 12.7 8.1 9.6 81 1.6 NW 24 33 13 18 1018.1 - 0.0
28/10:00pm 12.9 8.3 9.6 80 1.7 NW 24 32 13 17 1018.1 - 0.0
28/09:30pm 13.2 8.9 9.5 78 1.9 WNW 22 30 12 16 1018.4 - 0.0
28/09:00pm 12.9 9.2 9.4 79 1.8 WNW 19 24 10 13 1018.7 1018.9 0.0
28/08:30pm 13.6 9.7 9.3 75 2.2 WNW 20 30 11 16 1018.7 - 0.0
28/08:00pm 13.6 8.9 9.1 74 2.3 WNW 24 33 13 18 1018.6 - 0.0
28/07:30pm 13.9 10.0 9.4 74 2.3 WNW 20 28 11 15 1018.5 - 0.0
28/07:00pm 14.0 9.9 10.2 78 2.0 WNW 22 30 12 16 1018.2 - 0.0
28/06:30pm 14.3 9.9 10.3 77 2.1 WNW 24 30 13 16 1017.9 - 0.0
28/06:00pm 14.9 9.0 10.3 74 2.4 W 32 54 17 29 1017.7 1017.9 0.0
28/05:58pm 14.9 9.3 10.3 74 2.4 W 30 54 16 29 1017.7 - 0.0
28/05:30pm 14.8 10.0 10.2 74 2.4 W 26 39 14 21 1017.3 - 0.0
28/05:00pm 15.8 9.7 9.9 68 3.1 W 32 43 17 23 1017.0 - 0.0
28/04:30pm 15.9 11.9 10.6 71 2.8 W 22 32 12 17 1016.9 - 0.0
28/04:00pm 16.8 12.0 10.4 66 3.4 W 26 39 14 21 1016.7 - 0.0
28/03:44pm 17.3 11.1 9.9 62 3.9 W 33 52 18 28 1016.5 - 0.0
28/03:30pm 17.2 10.9 9.8 61 3.9 W 33 50 18 27 1016.4 - 0.0
28/03:00pm 17.0 11.3 9.8 62 3.8 W 30 41 16 22 1016.3 1016.5 0.0
28/02:37pm 18.1 12.1 10.0 59 4.3 W 32 52 17 28 1016.0 - 0.0
28/02:30pm 18.1 11.5 10.0 59 4.3 W 35 50 19 27 1016.0 - 0.0
28/02:17pm 18.4 11.9 10.2 59 4.4 W 35 57 19 31 1015.9 - 0.0
28/02:00pm 17.5 10.4 9.5 59 4.2 WNW 37 48 20 26 1016.0 - 0.0
28/01:30pm 18.2 11.6 10.1 59 4.3 WNW 35 50 19 27 1015.9 - 0.0
28/01:00pm 18.1 11.1 10.0 59 4.3 WNW 37 52 20 28 1016.1 - 0.0
28/12:30pm 17.3 9.8 9.5 60 4.1 WNW 39 61 21 33 1016.3 - 0.0
28/12:25pm 17.4 11.1 9.8 61 4.0 WNW 33 54 18 29 1016.3 - 0.0
28/12:00pm 17.8 11.3 10.5 62 3.9 WNW 35 52 19 28 1016.5 1016.7 0.0
28/11:30am 17.3 10.3 9.9 62 3.9 WNW 37 48 20 26 1016.8 - 0.0
28/11:03am 16.8 10.9 11.0 68 3.1 WNW 33 56 18 30 1017.1 - 0.0
28/11:00am 16.7 11.0 11.1 69 3.0 WNW 32 39 17 21 1017.2 - 0.0
28/10:30am 15.6 9.7 11.1 74 2.4 WNW 33 46 18 25 1017.4 - 0.0
28/10:00am 14.9 9.2 11.2 78 2.0 WNW 32 44 17 24 1017.4 - 0.0
28/09:30am 14.2 8.9 11.2 82 1.6 WNW 30 43 16 23 1017.2 - 0.0

Other Formats:

Comma delimited format used in spreadsheet applications
http://www.bom.gov.au/fwo/IDW60801/IDW60801.94802.axf

JavaScript Object Notation format (JSON) in row-major order
http://www.bom.gov.au/fwo/IDW60801/IDW60801.94802.json